Time;durP1;ratioP1;P1;durP2;ratioP2;P2;SDS_P1;SDS_P2;PMS_P1;PMS_P2;Temp;Humidity;BMP_temperature;BMP_pressure;BME280_temperature;BME280_humidity;BME280_pressure;Samples;Min_cycle;Max_cycle;Signal;HPM_P1;HPM_P2
2023/04/27 00:00:35;;;;;;;10.48;3.03;;;;;;;;;;7370429;19;20023;-67
2023/04/27 00:03:04;;;;;;;5.82;3.05;;;;;;;;;;7370186;19;20483;-67
2023/04/27 00:05:33;;;;;;;8.82;3.33;;;;;;;;;;7372500;19;20009;-67
2023/04/27 00:07:58;;;;;;;11.30;3.40;;;;;;;;;;7369509;19;20041;-67
2023/04/27 00:10:24;;;;;;;7.60;3.42;;;;;;;;;;7371963;19;19998;-67
2023/04/27 00:12:49;;;;;;;12.10;3.50;;;;;;;;;;7395932;19;20546;-67
2023/04/27 00:15:14;;;;;;;9.00;3.42;;;;;;;;;;7374448;19;20034;-67
2023/04/27 00:17:41;;;;;;;10.05;4.03;;;;;;;;;;7368798;19;20460;-68
2023/04/27 00:20:10;;;;;;;9.10;3.55;;;;;;;;;;7368898;19;20078;-68
2023/04/27 00:22:36;;;;;;;8.70;3.60;;;;;;;;;;7370520;19;20007;-68
2023/04/27 00:25:01;;;;;;;7.40;3.70;;;;;;;;;;7390816;19;20357;-67
2023/04/27 00:27:27;;;;;;;8.95;3.50;;;;;;;;;;7369705;19;20045;-68
2023/04/27 00:29:52;;;;;;;9.23;3.40;;;;;;;;;;7369581;19;20390;-68
2023/04/27 00:32:17;;;;;;;6.22;2.83;;;;;;;;;;7369418;19;20073;-69
2023/04/27 00:34:43;;;;;;;8.25;3.30;;;;;;;;;;7370607;19;20493;-68
2023/04/27 00:37:08;;;;;;;5.85;3.50;;;;;;;;;;7389312;19;20101;-67
2023/04/27 00:39:35;;;;;;;9.85;2.97;;;;;;;;;;7362955;19;20346;-67
2023/04/27 00:42:00;;;;;;;7.22;3.45;;;;;;;;;;7369818;19;20010;-67
2023/04/27 00:44:26;;;;;;;11.43;3.80;;;;;;;;;;7368677;19;20500;-67
2023/04/27 00:46:52;;;;;;;8.60;3.30;;;;;;;;;;7372115;19;20010;-67
2023/04/27 00:49:19;;;;;;;9.57;3.55;;;;;;;;;;7400541;19;20020;-68
2023/04/27 00:51:45;;;;;;;6.07;3.30;;;;;;;;;;7374393;19;19999;-67
2023/04/27 00:54:11;;;;;;;6.80;3.72;;;;;;;;;;7369266;19;20039;-67
2023/04/27 00:56:36;;;;;;;9.15;3.53;;;;;;;;;;7369586;19;20002;-67
2023/04/27 00:59:02;;;;;;;8.20;3.25;;;;;;;;;;7371193;19;20009;-67
2023/04/27 01:01:29;;;;;;;7.43;3.67;;;;;;;;;;7369932;19;19995;-68
2023/04/27 01:03:54;;;;;;;11.68;3.85;;;;;;;;;;7390386;19;19998;-67
2023/04/27 01:06:20;;;;;;;7.45;3.70;;;;;;;;;;7366811;19;20010;-68
2023/04/27 01:08:45;;;;;;;7.15;3.30;;;;;;;;;;7368758;19;20010;-67
2023/04/27 01:11:11;;;;;;;9.15;3.53;;;;;;;;;;7370836;19;20070;-67
2023/04/27 01:13:36;;;;;;;7.97;3.75;;;;;;;;;;7365893;19;20002;-67
2023/04/27 01:16:01;;;;;;;8.07;3.35;;;;;;;;;;7390226;19;20014;-68
2023/04/27 01:18:27;;;;;;;9.38;3.42;;;;;;;;;;7369208;19;20018;-67
2023/04/27 01:20:52;;;;;;;8.68;3.30;;;;;;;;;;7368268;19;20033;-67
2023/04/27 01:23:17;;;;;;;10.45;3.38;;;;;;;;;;7367353;19;20037;-68
2023/04/27 01:25:43;;;;;;;7.97;3.22;;;;;;;;;;7367797;19;20010;-67
2023/04/27 01:28:08;;;;;;;7.30;2.90;;;;;;;;;;7390891;19;20027;-68
2023/04/27 01:30:34;;;;;;;11.25;3.67;;;;;;;;;;7366637;19;20013;-67
2023/04/27 01:32:59;;;;;;;8.25;3.55;;;;;;;;;;7367018;19;20040;-68
2023/04/27 01:35:24;;;;;;;9.27;3.75;;;;;;;;;;7368431;19;20035;-67
2023/04/27 01:37:50;;;;;;;7.85;3.25;;;;;;;;;;7366688;19;20014;-67
2023/04/27 01:40:15;;;;;;;9.20;3.10;;;;;;;;;;7388275;19;20002;-68
2023/04/27 01:42:41;;;;;;;9.70;3.40;;;;;;;;;;7366676;19;20006;-67
2023/04/27 01:45:07;;;;;;;6.38;3.35;;;;;;;;;;7365954;19;20073;-68
2023/04/27 01:47:32;;;;;;;8.75;3.55;;;;;;;;;;7366060;19;20007;-67
2023/04/27 01:49:58;;;;;;;8.05;3.25;;;;;;;;;;7369072;19;20018;-68
2023/04/27 01:52:23;;;;;;;8.70;3.60;;;;;;;;;;7370955;19;19999;-69
2023/04/27 01:54:48;;;;;;;6.53;2.97;;;;;;;;;;7391143;19;20011;-67
2023/04/27 01:57:15;;;;;;;11.48;3.58;;;;;;;;;;7366614;19;20010;-68
2023/04/27 01:59:40;;;;;;;10.13;3.45;;;;;;;;;;7366643;19;20080;-68
2023/04/27 02:02:05;;;;;;;9.93;3.45;;;;;;;;;;7366951;19;20011;-68
2023/04/27 02:04:30;;;;;;;8.57;3.75;;;;;;;;;;7367389;19;20014;-68
2023/04/27 02:06:56;;;;;;;11.35;3.88;;;;;;;;;;7398254;19;20017;-67
2023/04/27 02:09:21;;;;;;;8.75;3.35;;;;;;;;;;7367903;19;20006;-67
2023/04/27 02:11:46;;;;;;;8.07;3.55;;;;;;;;;;7366290;19;20006;-68
2023/04/27 02:14:13;;;;;;;11.30;3.65;;;;;;;;;;7366176;19;20010;-68
2023/04/27 02:16:38;;;;;;;8.43;3.50;;;;;;;;;;7371190;19;20013;-69
2023/04/27 02:19:03;;;;;;;8.63;3.92;;;;;;;;;;7387371;19;19999;-68
2023/04/27 02:21:29;;;;;;;7.53;3.90;;;;;;;;;;7365068;19;20019;-68
2023/04/27 02:23:54;;;;;;;9.23;3.85;;;;;;;;;;7367016;19;20006;-67
2023/04/27 02:26:22;;;;;;;8.93;4.00;;;;;;;;;;7367314;19;20058;-68
2023/04/27 02:28:48;;;;;;;8.15;3.95;;;;;;;;;;7370390;19;20009;-68
2023/04/27 02:31:14;;;;;;;10.00;3.97;;;;;;;;;;7390809;19;20007;-68
2023/04/27 02:33:43;;;;;;;9.68;4.40;;;;;;;;;;7364464;19;20094;-68
2023/04/27 02:36:08;;;;;;;9.00;3.85;;;;;;;;;;7363744;19;20010;-68
2023/04/27 02:38:34;;;;;;;11.65;4.07;;;;;;;;;;7365786;19;20488;-67
2023/04/27 02:40:59;;;;;;;9.48;4.10;;;;;;;;;;7366804;19;20022;-67
2023/04/27 02:43:25;;;;;;;19.45;4.80;;;;;;;;;;7366078;19;19999;-68
2023/04/27 02:45:50;;;;;;;12.20;4.18;;;;;;;;;;7388522;19;20041;-68
2023/04/27 02:48:15;;;;;;;7.55;3.97;;;;;;;;;;7363776;19;20037;-68
2023/04/27 02:50:44;;;;;;;8.70;4.00;;;;;;;;;;7367032;19;20011;-68
2023/04/27 02:53:10;;;;;;;13.63;4.60;;;;;;;;;;7365610;19;20006;-68
2023/04/27 02:55:36;;;;;;;11.35;4.28;;;;;;;;;;7364645;19;20028;-68
2023/04/27 02:58:01;;;;;;;8.75;4.07;;;;;;;;;;7383420;19;19998;-68
2023/04/27 03:00:27;;;;;;;9.40;3.88;;;;;;;;;;7365298;19;20002;-68
2023/04/27 03:02:52;;;;;;;8.55;3.92;;;;;;;;;;7364328;19;20003;-68
2023/04/27 03:05:17;;;;;;;9.50;3.95;;;;;;;;;;7365708;19;20386;-68
2023/04/27 03:07:43;;;;;;;7.68;3.80;;;;;;;;;;7362676;19;20007;-68
2023/04/27 03:10:08;;;;;;;9.93;3.78;;;;;;;;;;7390299;19;20006;-68
2023/04/27 03:12:33;;;;;;;6.20;3.38;;;;;;;;;;7365196;19;20086;-68
2023/04/27 03:14:59;;;;;;;7.97;3.72;;;;;;;;;;7364605;19;20035;-68
2023/04/27 03:17:25;;;;;;;8.25;3.60;;;;;;;;;;7364563;19;20463;-69
2023/04/27 03:19:51;;;;;;;8.15;3.33;;;;;;;;;;7374282;19;20112;-68
2023/04/27 03:22:16;;;;;;;8.32;3.40;;;;;;;;;;7411782;19;20036;-68
2023/04/27 03:24:42;;;;;;;9.45;3.72;;;;;;;;;;7385656;19;20006;-68
2023/04/27 03:27:07;;;;;;;8.80;3.67;;;;;;;;;;7367352;19;20003;-68
2023/04/27 03:29:32;;;;;;;12.35;3.67;;;;;;;;;;7363084;19;20006;-68
2023/04/27 03:31:58;;;;;;;7.47;3.65;;;;;;;;;;7363572;19;20007;-68
2023/04/27 03:34:23;;;;;;;9.18;3.65;;;;;;;;;;7362617;19;20369;-68
2023/04/27 03:36:48;;;;;;;6.43;3.30;;;;;;;;;;7385877;19;20003;-68
2023/04/27 03:39:14;;;;;;;6.10;3.22;;;;;;;;;;7370802;19;20073;-68
2023/04/27 03:41:39;;;;;;;8.20;3.35;;;;;;;;;;7370600;19;20089;-68
2023/04/27 03:44:05;;;;;;;6.57;3.53;;;;;;;;;;7371429;19;20006;-68
2023/04/27 03:46:31;;;;;;;7.43;3.70;;;;;;;;;;7371395;19;20019;-69
2023/04/27 03:48:56;;;;;;;6.47;3.45;;;;;;;;;;7391945;19;20322;-68
2023/04/27 03:51:22;;;;;;;10.18;4.13;;;;;;;;;;7371044;19;20504;-68
2023/04/27 03:53:47;;;;;;;9.65;3.58;;;;;;;;;;7370781;19;20006;-68
2023/04/27 03:56:12;;;;;;;6.38;3.20;;;;;;;;;;7369567;19;20014;-68
2023/04/27 03:58:37;;;;;;;6.35;3.35;;;;;;;;;;7373658;19;19995;-68
2023/04/27 04:01:03;;;;;;;6.95;3.42;;;;;;;;;;7391868;19;19998;-68
2023/04/27 04:03:28;;;;;;;7.57;3.35;;;;;;;;;;7373213;19;20031;-68
2023/04/27 04:05:53;;;;;;;7.22;3.40;;;;;;;;;;7373305;19;19998;-68
2023/04/27 04:08:19;;;;;;;8.00;3.70;;;;;;;;;;7370671;19;20022;-68
2023/04/27 04:10:44;;;;;;;7.10;3.10;;;;;;;;;;7373487;19;20002;-68
2023/04/27 04:13:09;;;;;;;7.50;3.25;;;;;;;;;;7394526;19;20126;-68
2023/04/27 04:15:35;;;;;;;13.18;4.28;;;;;;;;;;7365457;19;20002;-68
2023/04/27 04:18:00;;;;;;;8.98;3.83;;;;;;;;;;7368974;19;20010;-68
2023/04/27 04:20:26;;;;;;;8.70;3.85;;;;;;;;;;7370595;19;20013;-68
2023/04/27 04:22:51;;;;;;;8.07;3.50;;;;;;;;;;7370624;19;20441;-68
2023/04/27 04:25:16;;;;;;;9.48;3.63;;;;;;;;;;7389203;19;20016;-67
2023/04/27 04:27:46;;;;;;;10.38;3.80;;;;;;;;;;7367475;19;20469;-67
2023/04/27 04:30:12;;;;;;;9.18;3.90;;;;;;;;;;7366014;19;20012;-67
2023/04/27 04:32:38;;;;;;;6.18;3.08;;;;;;;;;;7373371;19;20006;-67
2023/04/27 04:35:04;;;;;;;12.73;3.83;;;;;;;;;;7369794;19;20029;-68
2023/04/27 04:37:33;;;;;;;8.40;3.70;;;;;;;;;;7365850;19;20673;-68
2023/04/27 04:39:58;;;;;;;7.90;3.92;;;;;;;;;;7391410;19;19998;-67
2023/04/27 04:42:24;;;;;;;11.23;4.07;;;;;;;;;;7376219;19;20019;-67
2023/04/27 04:44:49;;;;;;;6.30;3.90;;;;;;;;;;7374877;19;20004;-67
2023/04/27 04:47:15;;;;;;;7.07;3.60;;;;;;;;;;7370754;19;20073;-67
2023/04/27 04:49:40;;;;;;;8.93;4.28;;;;;;;;;;7369489;19;20012;-67
2023/04/27 04:52:06;;;;;;;9.63;3.92;;;;;;;;;;7395470;19;20015;-67
2023/04/27 04:54:31;;;;;;;6.43;3.83;;;;;;;;;;7373554;19;20388;-68
2023/04/27 04:57:01;;;;;;;7.72;3.60;;;;;;;;;;7370411;19;20010;-64
2023/04/27 04:59:26;;;;;;;8.40;3.38;;;;;;;;;;7373156;19;19999;-65
2023/04/27 05:01:54;;;;;;;11.27;4.32;;;;;;;;;;7373566;19;20002;-68
2023/04/27 05:04:20;;;;;;;8.75;3.65;;;;;;;;;;7390583;19;20501;-68
2023/04/27 05:06:46;;;;;;;9.57;3.65;;;;;;;;;;7368223;19;19999;-69
2023/04/27 05:09:11;;;;;;;13.25;3.67;;;;;;;;;;7370611;19;19995;-68
2023/04/27 05:11:36;;;;;;;19.58;3.88;;;;;;;;;;7372729;19;20035;-68
2023/04/27 05:14:02;;;;;;;8.57;3.40;;;;;;;;;;7372157;19;20020;-68
2023/04/27 05:16:27;;;;;;;13.20;3.55;;;;;;;;;;7370839;19;20355;-68
2023/04/27 05:18:53;;;;;;;13.57;4.00;;;;;;;;;;7392092;19;20002;-68
2023/04/27 05:21:20;;;;;;;10.35;3.47;;;;;;;;;;7367974;19;20036;-68
2023/04/27 05:23:46;;;;;;;11.65;3.70;;;;;;;;;;7369033;19;20035;-66
2023/04/27 05:26:16;;;;;;;17.50;3.90;;;;;;;;;;7367234;19;20370;-67
2023/04/27 05:28:41;;;;;;;11.13;4.68;;;;;;;;;;7370083;19;20075;-67
2023/04/27 05:31:07;;;;;;;8.55;3.70;;;;;;;;;;7391016;19;19994;-66
2023/04/27 05:33:32;;;;;;;12.60;3.88;;;;;;;;;;7367777;19;20045;-66
2023/04/27 05:35:58;;;;;;;11.65;3.50;;;;;;;;;;7366444;19;20003;-67
2023/04/27 05:38:23;;;;;;;13.07;3.78;;;;;;;;;;7363163;19;20365;-67
2023/04/27 05:40:55;;;;;;;14.02;3.92;;;;;;;;;;7365497;19;20065;-67
2023/04/27 05:43:21;;;;;;;9.20;3.60;;;;;;;;;;7383141;19;20005;-67
2023/04/27 05:45:46;;;;;;;14.10;3.97;;;;;;;;;;7383253;19;20405;-66
2023/04/27 05:48:13;;;;;;;17.52;3.72;;;;;;;;;;7365615;19;20002;-66
2023/04/27 05:50:38;;;;;;;16.92;3.60;;;;;;;;;;7368079;19;20010;-66
2023/04/27 05:53:04;;;;;;;18.35;4.32;;;;;;;;;;7369456;19;20038;-66
2023/04/27 05:55:30;;;;;;;12.77;3.83;;;;;;;;;;7369468;19;20337;-67
2023/04/27 05:57:55;;;;;;;5.40;2.92;;;;;;;;;;7386926;19;20002;-66
2023/04/27 06:00:21;;;;;;;15.95;3.70;;;;;;;;;;7368524;19;20003;-66
2023/04/27 06:02:46;;;;;;;6.53;3.10;;;;;;;;;;7369101;19;20078;-66
2023/04/27 06:05:12;;;;;;;10.48;3.38;;;;;;;;;;7374385;19;20010;-66
2023/04/27 06:07:38;;;;;;;7.38;3.10;;;;;;;;;;7371157;19;20006;-67
2023/04/27 06:10:03;;;;;;;9.52;3.08;;;;;;;;;;7388670;19;20023;-68
2023/04/27 06:12:29;;;;;;;11.18;3.30;;;;;;;;;;7368656;19;20014;-67
2023/04/27 06:14:54;;;;;;;6.40;3.33;;;;;;;;;;7368271;19;20003;-67
2023/04/27 06:17:20;;;;;;;9.65;2.90;;;;;;;;;;7369250;19;20021;-67
2023/04/27 06:19:46;;;;;;;7.13;3.63;;;;;;;;;;7373153;19;20010;-66
2023/04/27 06:22:11;;;;;;;8.45;3.70;;;;;;;;;;7394105;19;20010;-66
2023/04/27 06:24:36;;;;;;;8.85;3.13;;;;;;;;;;7373265;19;19994;-66
2023/04/27 06:27:02;;;;;;;8.07;3.47;;;;;;;;;;7367467;19;20014;-66
2023/04/27 06:29:27;;;;;;;6.55;3.10;;;;;;;;;;7366377;19;19995;-66
2023/04/27 06:31:52;;;;;;;9.88;3.53;;;;;;;;;;7366391;19;19998;-66
2023/04/27 06:34:18;;;;;;;8.82;3.80;;;;;;;;;;7387109;19;19998;-66
2023/04/27 06:36:43;;;;;;;7.97;3.17;;;;;;;;;;7363794;19;20013;-66
2023/04/27 06:39:08;;;;;;;6.40;3.00;;;;;;;;;;7365579;19;20028;-66
2023/04/27 06:41:33;;;;;;;9.48;3.13;;;;;;;;;;7369095;19;20009;-66
2023/04/27 06:43:59;;;;;;;12.65;3.38;;;;;;;;;;7365468;19;20010;-66
2023/04/27 06:46:24;;;;;;;6.15;2.80;;;;;;;;;;7369229;19;20002;-66
2023/04/27 06:48:51;;;;;;;6.93;3.08;;;;;;;;;;7389956;19;20333;-66
2023/04/27 06:51:16;;;;;;;5.20;2.80;;;;;;;;;;7366062;19;19995;-66
2023/04/27 06:53:42;;;;;;;5.95;2.72;;;;;;;;;;7367086;19;20006;-66
2023/04/27 06:56:10;;;;;;;9.52;3.17;;;;;;;;;;7366255;19;20347;-66
2023/04/27 06:58:36;;;;;;;7.20;3.05;;;;;;;;;;7367470;19;20002;-66
2023/04/27 07:01:02;;;;;;;7.20;3.08;;;;;;;;;;7390343;19;20327;-66
2023/04/27 07:03:28;;;;;;;7.05;2.63;;;;;;;;;;7368536;19;20379;-66
2023/04/27 07:05:55;;;;;;;6.78;2.50;;;;;;;;;;7366959;19;20002;-66
2023/04/27 07:08:20;;;;;;;6.38;2.80;;;;;;;;;;7368957;19;20002;-66
2023/04/27 07:10:46;;;;;;;5.65;2.63;;;;;;;;;;7367915;19;20008;-66
2023/04/27 07:13:11;;;;;;;9.10;2.80;;;;;;;;;;7395042;19;20027;-66
2023/04/27 07:15:36;;;;;;;6.70;3.08;;;;;;;;;;7373789;19;20074;-66
2023/04/27 07:18:02;;;;;;;4.45;2.28;;;;;;;;;;7372692;19;20341;-66
2023/04/27 07:20:27;;;;;;;9.07;3.00;;;;;;;;;;7374986;19;20401;-66
2023/04/27 07:22:52;;;;;;;7.72;3.15;;;;;;;;;;7376701;19;20031;-66
2023/04/27 07:25:18;;;;;;;9.52;2.92;;;;;;;;;;7399564;19;19994;-66
2023/04/27 07:27:44;;;;;;;9.00;3.22;;;;;;;;;;7372351;19;20013;-66
2023/04/27 07:30:12;;;;;;;8.93;2.92;;;;;;;;;;7373680;19;20013;-66
2023/04/27 07:32:40;;;;;;;7.75;2.88;;;;;;;;;;7374692;19;19999;-66
2023/04/27 07:35:08;;;;;;;6.13;2.13;;;;;;;;;;7379488;19;20006;-65
2023/04/27 07:37:34;;;;;;;7.95;2.63;;;;;;;;;;7375198;19;20062;-66
2023/04/27 07:40:01;;;;;;;5.47;2.60;;;;;;;;;;7394584;19;20006;-67
2023/04/27 07:42:26;;;;;;;7.15;2.60;;;;;;;;;;7374933;19;20030;-67
2023/04/27 07:44:52;;;;;;;11.48;2.75;;;;;;;;;;7374199;19;20002;-67
2023/04/27 07:47:18;;;;;;;12.80;2.78;;;;;;;;;;7375288;19;20063;-66
2023/04/27 07:49:47;;;;;;;6.15;3.22;;;;;;;;;;7374002;19;20018;-66
2023/04/27 07:52:12;;;;;;;8.32;2.35;;;;;;;;;;7394865;19;19995;-66
2023/04/27 07:54:38;;;;;;;5.65;2.58;;;;;;;;;;7375619;19;20381;-67
2023/04/27 07:57:09;;;;;;;5.43;2.38;;;;;;;;;;7369830;19;20032;-66
2023/04/27 07:59:34;;;;;;;8.10;2.90;;;;;;;;;;7372426;19;20070;-67
2023/04/27 08:01:59;;;;;;;7.03;2.05;;;;;;;;;;7370456;19;20066;-67
2023/04/27 08:04:25;;;;;;;5.35;2.22;;;;;;;;;;7372446;19;20011;-68
2023/04/27 08:06:51;;;;;;;4.38;2.03;;;;;;;;;;7393550;19;20621;-68
2023/04/27 08:09:16;;;;;;;7.40;2.67;;;;;;;;;;7368626;19;20006;-67
2023/04/27 08:11:41;;;;;;;7.47;2.40;;;;;;;;;;7372946;19;20385;-67
2023/04/27 08:14:12;;;;;;;7.88;1.92;;;;;;;;;;7371979;19;20373;-67
2023/04/27 08:16:37;;;;;;;5.53;2.47;;;;;;;;;;7371347;19;20023;-67
2023/04/27 08:19:03;;;;;;;6.32;2.10;;;;;;;;;;7394917;19;20114;-67
2023/04/27 08:21:29;;;;;;;10.00;2.30;;;;;;;;;;7371806;19;20575;-67
2023/04/27 08:23:54;;;;;;;8.05;2.33;;;;;;;;;;7369769;19;20006;-67
2023/04/27 08:26:19;;;;;;;8.07;2.53;;;;;;;;;;7369944;19;19998;-67
2023/04/27 08:28:46;;;;;;;6.97;2.45;;;;;;;;;;7370719;19;20570;-67
2023/04/27 08:31:11;;;;;;;5.30;2.42;;;;;;;;;;7394243;19;20067;-67
2023/04/27 08:33:37;;;;;;;6.82;2.70;;;;;;;;;;7371253;19;20011;-67
2023/04/27 08:36:02;;;;;;;5.20;2.17;;;;;;;;;;7370045;19;20074;-66
2023/04/27 08:38:28;;;;;;;12.00;2.83;;;;;;;;;;7370788;19;20010;-66
2023/04/27 08:40:53;;;;;;;7.53;2.30;;;;;;;;;;7371250;19;20010;-67
2023/04/27 08:43:18;;;;;;;4.72;2.40;;;;;;;;;;7393958;19;20006;-67
2023/04/27 08:45:49;;;;;;;8.45;2.20;;;;;;;;;;7369053;19;20003;-67
2023/04/27 08:48:14;;;;;;;6.15;2.28;;;;;;;;;;7369096;19;20457;-67
2023/04/27 08:50:43;;;;;;;6.68;2.88;;;;;;;;;;7369507;19;20015;-67
2023/04/27 08:53:21;;;;;;;9.00;2.90;;;;;;;;;;7371585;19;20003;-67
2023/04/27 08:55:47;;;;;;;6.05;2.55;;;;;;;;;;7371255;19;20011;-65
2023/04/27 08:58:12;;;;;;;9.27;2.85;;;;;;;;;;7390141;19;20037;-67
2023/04/27 09:00:40;;;;;;;7.85;2.67;;;;;;;;;;7369455;19;20037;-66
2023/04/27 09:03:06;;;;;;;6.10;2.38;;;;;;;;;;7371004;19;20368;-65
2023/04/27 09:05:32;;;;;;;5.85;2.42;;;;;;;;;;7372067;19;20023;-65
2023/04/27 09:08:07;;;;;;;8.80;2.97;;;;;;;;;;7370910;19;20007;-66
2023/04/27 09:10:49;;;;;;;4.82;2.20;;;;;;;;;;7373869;19;19997;-67
2023/04/27 09:13:15;;;;;;;4.82;2.40;;;;;;;;;;7396885;19;20031;-67
2023/04/27 09:15:42;;;;;;;5.97;2.47;;;;;;;;;;7369533;19;20106;-67
2023/04/27 09:18:13;;;;;;;8.93;2.90;;;;;;;;;;7369478;19;20010;-67
2023/04/27 09:20:46;;;;;;;8.68;2.70;;;;;;;;;;7369401;19;20471;-67
2023/04/27 09:23:34;;;;;;;10.35;2.80;;;;;;;;;;7371245;19;20011;-67
2023/04/27 09:26:07;;;;;;;6.28;2.60;;;;;;;;;;7367692;19;20018;-67
2023/04/27 09:28:33;;;;;;;7.22;2.42;;;;;;;;;;7369275;19;20131;-67
2023/04/27 09:31:00;;;;;;;4.25;2.45;;;;;;;;;;7390379;19;20003;-67
2023/04/27 09:33:30;;;;;;;4.97;2.22;;;;;;;;;;7370612;19;20006;-66
2023/04/27 09:36:02;;;;;;;10.65;3.00;;;;;;;;;;7369089;19;20025;-66
2023/04/27 09:38:28;;;;;;;6.82;2.60;;;;;;;;;;7369635;19;20023;-67
2023/04/27 09:40:55;;;;;;;8.80;3.00;;;;;;;;;;7369124;19;20429;-67
2023/04/27 09:43:22;;;;;;;9.52;3.13;;;;;;;;;;7393383;19;20046;-67
2023/04/27 09:45:48;;;;;;;8.07;2.95;;;;;;;;;;7386107;19;20010;-67
2023/04/27 09:48:13;;;;;;;8.90;2.80;;;;;;;;;;7367836;19;20009;-67
2023/04/27 09:50:41;;;;;;;8.65;2.70;;;;;;;;;;7367947;19;20006;-67
2023/04/27 09:53:12;;;;;;;9.68;3.05;;;;;;;;;;7370567;19;20346;-67
2023/04/27 09:56:16;;;;;;;7.80;2.80;;;;;;;;;;7365619;19;20657;-67
2023/04/27 09:59:08;;;;;;;9.43;2.70;;;;;;;;;;7365477;19;19999;-67
2023/04/27 10:01:40;;;;;;;9.93;3.63;;;;;;;;;;7364655;19;20011;-67
2023/04/27 10:04:11;;;;;;;7.40;3.08;;;;;;;;;;7387268;19;20066;-67
2023/04/27 10:06:52;;;;;;;10.15;3.10;;;;;;;;;;7363706;19;20062;-67
2023/04/27 10:09:23;;;;;;;11.23;3.30;;;;;;;;;;7363116;19;20294;-67
2023/04/27 10:11:50;;;;;;;7.88;3.03;;;;;;;;;;7365584;19;20051;-67
2023/04/27 10:14:17;;;;;;;7.22;2.70;;;;;;;;;;7363774;19;20110;-67
2023/04/27 10:16:54;;;;;;;6.78;2.78;;;;;;;;;;7370389;19;20014;-66
2023/04/27 10:19:22;;;;;;;5.97;2.85;;;;;;;;;;7401713;19;20007;-66
2023/04/27 10:21:59;;;;;;;7.50;3.08;;;;;;;;;;7372708;19;20010;-66
2023/04/27 10:24:41;;;;;;;12.30;3.08;;;;;;;;;;7367559;19;20385;-66
2023/04/27 10:27:08;;;;;;;10.10;3.05;;;;;;;;;;7366565;19;20003;-66
2023/04/27 10:29:38;;;;;;;7.18;2.90;;;;;;;;;;7364838;19;20007;-67
2023/04/27 10:32:09;;;;;;;8.65;3.40;;;;;;;;;;7368833;19;20007;-68
2023/04/27 10:34:36;;;;;;;9.25;3.20;;;;;;;;;;7369952;19;20528;-66
2023/04/27 10:37:06;;;;;;;8.65;3.70;;;;;;;;;;7390433;19;20006;-66
2023/04/27 10:39:36;;;;;;;6.53;3.00;;;;;;;;;;7366237;19;20006;-66
2023/04/27 10:42:01;;;;;;;10.15;3.55;;;;;;;;;;7361685;19;20007;-64
2023/04/27 10:44:29;;;;;;;8.50;3.20;;;;;;;;;;7366741;19;20090;-64
2023/04/27 10:46:58;;;;;;;10.82;3.63;;;;;;;;;;7369057;19;20107;-64
2023/04/27 10:49:26;;;;;;;5.90;2.90;;;;;;;;;;7372194;19;20002;-64
2023/04/27 10:51:51;;;;;;;7.20;3.03;;;;;;;;;;7392571;19;20223;-64
2023/04/27 10:54:17;;;;;;;8.63;3.35;;;;;;;;;;7374618;19;20076;-64
2023/04/27 10:56:43;;;;;;;7.28;2.95;;;;;;;;;;7370451;19;20010;-62
2023/04/27 10:59:08;;;;;;;8.13;2.67;;;;;;;;;;7374246;19;20066;-66
2023/04/27 11:01:35;;;;;;;8.48;3.20;;;;;;;;;;7373875;19;19995;-63
2023/04/27 11:04:02;;;;;;;7.47;2.85;;;;;;;;;;7396379;19;20022;-65
2023/04/27 11:06:29;;;;;;;7.57;3.13;;;;;;;;;;7372717;19;20006;-65
2023/04/27 11:08:55;;;;;;;10.25;2.83;;;;;;;;;;7371400;19;20002;-65
2023/04/27 11:11:21;;;;;;;6.40;2.53;;;;;;;;;;7374687;19;20002;-65
2023/04/27 11:13:51;;;;;;;7.10;3.00;;;;;;;;;;7372807;19;20006;-65
2023/04/27 11:16:18;;;;;;;8.93;2.83;;;;;;;;;;7395312;19;20003;-65
2023/04/27 11:18:44;;;;;;;5.50;2.55;;;;;;;;;;7374856;19;20456;-66
2023/04/27 11:21:17;;;;;;;9.60;3.05;;;;;;;;;;7373856;19;20097;-65
2023/04/27 11:23:43;;;;;;;8.10;3.00;;;;;;;;;;7372767;19;20063;-65
2023/04/27 11:26:17;;;;;;;8.48;3.17;;;;;;;;;;7371052;19;20010;-65
2023/04/27 11:28:45;;;;;;;6.80;3.00;;;;;;;;;;7372745;19;19991;-65
2023/04/27 11:31:10;;;;;;;11.55;3.05;;;;;;;;;;7396235;19;20002;-65
2023/04/27 11:33:36;;;;;;;9.88;3.15;;;;;;;;;;7375229;19;20488;-65
2023/04/27 11:36:02;;;;;;;6.47;2.75;;;;;;;;;;7375431;19;20007;-65
2023/04/27 11:38:36;;;;;;;5.53;2.63;;;;;;;;;;7371538;19;19999;-65
2023/04/27 11:41:06;;;;;;;7.28;2.70;;;;;;;;;;7373271;19;20082;-65
2023/04/27 11:43:32;;;;;;;7.97;2.78;;;;;;;;;;7372094;19;20459;-65
2023/04/27 11:45:57;;;;;;;5.05;2.33;;;;;;;;;;7393406;19;19995;-65
2023/04/27 11:48:24;;;;;;;6.72;2.80;;;;;;;;;;7373050;19;20394;-66
2023/04/27 11:50:50;;;;;;;6.57;2.75;;;;;;;;;;7371524;19;20075;-66
2023/04/27 11:53:16;;;;;;;7.10;2.70;;;;;;;;;;7373395;19;20018;-66
2023/04/27 11:55:42;;;;;;;7.90;3.17;;;;;;;;;;7371006;19;20355;-66
2023/04/27 11:58:15;;;;;;;9.98;3.20;;;;;;;;;;7389327;19;19995;-65
2023/04/27 12:00:40;;;;;;;7.20;2.85;;;;;;;;;;7372108;19;20372;-65
2023/04/27 12:03:06;;;;;;;5.65;2.70;;;;;;;;;;7369663;19;20002;-65
2023/04/27 12:05:31;;;;;;;6.90;2.65;;;;;;;;;;7375018;19;20018;-65
2023/04/27 12:07:57;;;;;;;7.35;2.70;;;;;;;;;;7373835;19;20010;-65
2023/04/27 12:10:23;;;;;;;11.30;3.13;;;;;;;;;;7375022;19;20006;-65
2023/04/27 12:12:48;;;;;;;7.22;2.90;;;;;;;;;;7394815;19;20397;-65
2023/04/27 12:15:13;;;;;;;8.60;2.50;;;;;;;;;;7371778;19;20010;-65
2023/04/27 12:17:39;;;;;;;8.50;3.08;;;;;;;;;;7371224;19;20087;-64
2023/04/27 12:20:05;;;;;;;10.40;3.30;;;;;;;;;;7370737;19;20014;-65
2023/04/27 12:22:30;;;;;;;6.55;3.22;;;;;;;;;;7371465;19;20015;-65
2023/04/27 12:24:56;;;;;;;7.35;2.90;;;;;;;;;;7393128;19;20014;-65
2023/04/27 12:27:21;;;;;;;6.65;3.00;;;;;;;;;;7368804;19;19998;-65
2023/04/27 12:29:47;;;;;;;6.25;2.83;;;;;;;;;;7370220;19;20003;-65
2023/04/27 12:32:12;;;;;;;7.80;3.30;;;;;;;;;;7369820;19;20461;-65
2023/04/27 12:34:38;;;;;;;6.68;2.67;;;;;;;;;;7372529;19;20027;-65
2023/04/27 12:37:04;;;;;;;5.80;2.47;;;;;;;;;;7394143;19;20027;-65
2023/04/27 12:39:29;;;;;;;6.03;2.55;;;;;;;;;;7369220;19;20726;-65
2023/04/27 12:41:55;;;;;;;7.88;2.65;;;;;;;;;;7371446;19;20028;-65
2023/04/27 12:44:21;;;;;;;6.15;2.72;;;;;;;;;;7368431;19;20005;-65
2023/04/27 12:46:47;;;;;;;7.38;3.13;;;;;;;;;;7369622;19;20009;-65
2023/04/27 12:49:13;;;;;;;6.07;2.97;;;;;;;;;;7393093;19;20005;-64
2023/04/27 12:51:38;;;;;;;9.30;3.17;;;;;;;;;;7368929;19;20060;-64
2023/04/27 12:54:05;;;;;;;6.97;2.40;;;;;;;;;;7369989;19;19999;-64
2023/04/27 12:56:30;;;;;;;5.65;2.67;;;;;;;;;;7367633;19;20006;-64
2023/04/27 12:58:56;;;;;;;7.95;2.55;;;;;;;;;;7370061;19;20015;-64
2023/04/27 13:01:26;;;;;;;6.78;2.58;;;;;;;;;;7373941;19;19995;-62
2023/04/27 13:03:52;;;;;;;5.45;2.47;;;;;;;;;;7390809;19;20358;-64
2023/04/27 13:06:19;;;;;;;7.47;2.78;;;;;;;;;;7369321;19;20305;-64
2023/04/27 13:08:44;;;;;;;4.78;2.58;;;;;;;;;;7365735;19;20003;-63
2023/04/27 13:11:10;;;;;;;5.80;2.97;;;;;;;;;;7368978;19;20479;-63
2023/04/27 13:13:35;;;;;;;5.22;2.30;;;;;;;;;;7368207;19;20470;-63
2023/04/27 13:16:01;;;;;;;5.88;2.60;;;;;;;;;;7389502;19;19998;-65
2023/04/27 13:18:29;;;;;;;7.05;2.90;;;;;;;;;;7368770;19;20073;-68
2023/04/27 13:20:55;;;;;;;7.85;2.58;;;;;;;;;;7370888;19;19998;-67
2023/04/27 13:23:20;;;;;;;8.70;2.60;;;;;;;;;;7369398;19;19995;-67
2023/04/27 13:25:45;;;;;;;6.35;2.80;;;;;;;;;;7368494;19;19998;-67
2023/04/27 13:28:11;;;;;;;7.38;2.83;;;;;;;;;;7388712;19;20033;-68
2023/04/27 13:30:36;;;;;;;8.63;3.28;;;;;;;;;;7370254;19;20006;-67
2023/04/27 13:33:02;;;;;;;6.45;2.90;;;;;;;;;;7367554;19;20010;-67
2023/04/27 13:35:28;;;;;;;8.93;2.60;;;;;;;;;;7368741;19;20038;-67
2023/04/27 13:37:53;;;;;;;7.47;2.80;;;;;;;;;;7366827;19;20526;-69
2023/04/27 13:40:21;;;;;;;7.05;2.97;;;;;;;;;;7388883;19;20148;-72
2023/04/27 13:42:47;;;;;;;139.50;70.47;;;;;;;;;;7368161;19;20473;-68
2023/04/27 13:45:12;;;;;;;9.95;4.32;;;;;;;;;;7368893;19;20027;-68
2023/04/27 13:47:40;;;;;;;7.90;2.85;;;;;;;;;;7368228;19;20540;-68
2023/04/27 13:50:08;;;;;;;6.03;2.33;;;;;;;;;;7368799;19;20010;-68
2023/04/27 13:52:34;;;;;;;7.38;3.00;;;;;;;;;;7368486;19;20005;-68
2023/04/27 13:55:00;;;;;;;9.60;3.20;;;;;;;;;;7391854;19;20067;-66
2023/04/27 13:57:25;;;;;;;6.57;2.72;;;;;;;;;;7364921;19;20476;-68
2023/04/27 13:59:50;;;;;;;8.45;2.75;;;;;;;;;;7368430;19;20043;-66
2023/04/27 14:02:15;;;;;;;7.60;3.15;;;;;;;;;;7368359;19;20025;-69
2023/04/27 14:04:41;;;;;;;7.93;2.88;;;;;;;;;;7370547;19;20008;-68
2023/04/27 14:07:06;;;;;;;5.30;2.60;;;;;;;;;;7391412;19;20484;-68
2023/04/27 14:09:31;;;;;;;4.72;2.47;;;;;;;;;;7367362;19;20032;-68
2023/04/27 14:11:57;;;;;;;7.90;2.70;;;;;;;;;;7373635;19;20037;-66
2023/04/27 14:14:22;;;;;;;5.40;2.25;;;;;;;;;;7369364;19;20030;-68
2023/04/27 14:16:49;;;;;;;6.60;2.50;;;;;;;;;;7379260;19;20035;-67
2023/04/27 14:19:15;;;;;;;5.82;2.70;;;;;;;;;;7402014;19;20043;-68
2023/04/27 14:21:40;;;;;;;10.02;2.80;;;;;;;;;;7378789;19;20038;-67
2023/04/27 14:24:06;;;;;;;8.60;3.00;;;;;;;;;;7371120;19;20006;-67
2023/04/27 14:26:32;;;;;;;7.13;2.55;;;;;;;;;;7367771;19;20014;-67
2023/04/27 14:28:57;;;;;;;7.15;2.63;;;;;;;;;;7366159;19;20041;-66
2023/04/27 14:31:23;;;;;;;4.75;2.45;;;;;;;;;;7366462;19;20437;-66
2023/04/27 14:33:49;;;;;;;6.50;2.55;;;;;;;;;;7382861;19;20035;-66
2023/04/27 14:36:16;;;;;;;7.32;3.10;;;;;;;;;;7363122;19;20358;-66